Airfield :
LOGIN :

Register | Disclaimer

   EN    FR    IT 

 










Legend :    VFR   Marginal VFR   IFR   Intensive IFR   Very Intensive IFR
Visi :
Ceiling :
>= 8 km
>= 3000ft
5 to 8 km
1000 to 3000 ft
1500m to 5 km
500 to 1000 ft
800 to 1500m
200 to 500 ft
< 800m
< 200 ft
Symbols :   Thunderstorms  Fog  Heavy snow  Heavy precipitations  Wind > 20 kt
SIGMETs :     Misc.  Thunderstorms  Icing  Turbulence  Mountain Waves  Volcanic Ashes







- Airport Elevation : 17 ft
- IATA code : MPL
- Download approach charts


LFMT - Montpellier Méditerranée

CURRENT METAR :
  • 181130Z AUTO 15007KT CAVOK 18/07 Q1021 NOSIG

EXPIRED METARs :
  • 181100Z AUTO 15005KT 110V190 CAVOK 18/07 Q1021 NOSIG
  • 181030Z AUTO 15005KT 120V180 CAVOK 18/09 Q1021 NOSIG
  • 181000Z AUTO 13005KT CAVOK 17/08 Q1021 NOSIG
  • 180930Z AUTO 08005KT 050V110 CAVOK 17/09 Q1021 NOSIG

TAF TAF LFMT
Valid from the 18 at 09:00 until the 19 at 09:00 UTC


180800Z 1809/1909 03005KT CAVOK
BECMG 1812/1814 16010KT
TEMPO 1816/1818 22010KT
TEMPO 1819/1908 03005KT
ATIS : +33 4 67 13 11 70
No reported NOTAMs for that airfield.
1 SIGMET reported for the Marseille FIR (LFMM) :
 
Severe turbulence
LFMM SIGMET 2 VALID 180900/181300 LFPW
LFMM MARSEILLE FIR/UIR SEV TURB FCST WI N4300 E00230 - N4430 E00245 - N4530 E00430 - N4500 E00445 - N4300 E00230 SFC/FL060 STNR NC=



MET'MAP, your aeronautical weather chart ! - Copyright ORBIFLY December 2007 - Disclaimer

ORBIFLY MET'MAP TEAM :

Programming & Development : Alexandra Zaïnal
Concept & Development : Baudouin d'Aumeries
Co-Development & Prog : Marc-Olivier Méhu
Technical & hardware support : Manuel Goepfert

Contact : metmap@orbifly.com




SOURCES & CREDITS :

   NOAA